createdAt,value
2023-01-03T00:00:40.577Z,2.30
2023-01-03T00:03:27.700Z,2.26
2023-01-03T00:05:55.060Z,2.21
2023-01-03T00:08:22.106Z,2.17
2023-01-03T00:10:49.483Z,2.09
2023-01-03T00:13:16.526Z,2.03
2023-01-03T00:15:46.217Z,1.98
2023-01-03T00:18:13.256Z,1.91
2023-01-03T00:20:43.201Z,1.84
2023-01-03T00:23:10.218Z,1.82
2023-01-03T00:25:37.738Z,1.81
2023-01-03T00:28:05.201Z,1.81
2023-01-03T00:30:32.552Z,1.77
2023-01-03T00:32:59.867Z,1.72
2023-01-03T00:35:27.349Z,1.70
2023-01-03T00:37:56.571Z,1.69
2023-01-03T00:40:23.876Z,1.64
2023-01-03T00:43:09.540Z,1.61
2023-01-03T00:45:37.156Z,1.63
2023-01-03T00:48:04.441Z,1.62
2023-01-03T00:50:32.118Z,1.66
2023-01-03T00:52:59.260Z,1.75
2023-01-03T00:55:26.560Z,1.80
2023-01-03T00:57:53.569Z,1.86
2023-01-03T01:00:20.988Z,1.90
2023-01-03T01:02:51.170Z,1.95
2023-01-03T01:05:18.676Z,1.99
2023-01-03T01:07:47.888Z,2.02
2023-01-03T01:10:19.586Z,2.07
2023-01-03T01:12:49.136Z,2.13
2023-01-03T01:15:16.829Z,2.21
2023-01-03T01:17:43.925Z,2.23
2023-01-03T01:20:11.424Z,2.30
2023-01-03T01:22:38.503Z,2.30
2023-01-03T01:25:06.175Z,2.34
2023-01-03T01:27:33.148Z,2.35
2023-01-03T01:30:00.615Z,2.35
2023-01-03T01:32:27.693Z,2.34
2023-01-03T01:34:55.040Z,2.27
2023-01-03T01:37:22.105Z,2.25
2023-01-03T01:39:49.469Z,2.23
2023-01-03T01:42:35.285Z,2.22
2023-01-03T01:45:15.382Z,2.17
2023-01-03T01:47:54.565Z,2.12
2023-01-03T01:50:25.119Z,2.02
2023-01-03T01:53:07.605Z,1.95
2023-01-03T01:55:46.893Z,1.93
2023-01-03T01:58:15.782Z,1.88
2023-01-03T02:00:44.649Z,1.89
2023-01-03T02:03:12.537Z,1.89
2023-01-03T02:05:45.231Z,1.90
2023-01-03T02:08:13.224Z,2.05
2023-01-03T02:11:18.033Z,2.05
2023-01-03T02:13:51.503Z,2.04
2023-01-03T02:16:18.841Z,2.00
2023-01-03T02:19:02.303Z,2.04
2023-01-03T02:21:53.018Z,2.06
2023-01-03T02:24:44.159Z,2.05
2023-01-03T02:27:30.159Z,2.08
2023-01-03T02:30:25.030Z,2.07
2023-01-03T02:33:04.428Z,2.09
2023-01-03T02:36:05.930Z,2.09
2023-01-03T02:39:01.749Z,2.10
2023-01-03T02:42:16.667Z,2.01
2023-01-03T02:45:11.699Z,2.01
2023-01-03T02:47:58.153Z,1.99
2023-01-03T02:50:28.330Z,1.99
2023-01-03T02:53:00.945Z,2.00
2023-01-03T02:55:31.640Z,2.02
2023-01-03T02:58:06.180Z,2.03
2023-01-03T03:00:41.418Z,2.01
2023-01-03T03:03:14.168Z,2.01
2023-01-03T03:05:54.195Z,2.05
2023-01-03T03:08:21.286Z,2.07
2023-01-03T03:11:08.095Z,2.11
2023-01-03T03:13:55.213Z,2.18
2023-01-03T03:16:42.789Z,2.23
2023-01-03T03:19:47.388Z,2.27
2023-01-03T03:22:53.588Z,2.30
2023-01-03T03:25:42.279Z,2.37
2023-01-03T03:28:32.521Z,2.42
2023-01-03T03:31:09.302Z,2.50
2023-01-03T03:33:46.803Z,2.54
2023-01-03T03:36:25.766Z,2.54
2023-01-03T03:38:53.201Z,2.57
2023-01-03T03:41:47.856Z,2.61
2023-01-03T03:45:01.010Z,2.66
2023-01-03T03:47:59.627Z,2.67
2023-01-03T03:50:51.683Z,2.64
2023-01-03T03:53:22.074Z,2.67
2023-01-03T03:55:58.701Z,2.69
2023-01-03T03:58:49.412Z,2.71
2023-01-03T04:01:20.604Z,2.74
2023-01-03T04:03:51.668Z,2.76
2023-01-03T04:06:42.183Z,2.79
2023-01-03T04:09:09.341Z,2.76
2023-01-03T04:11:36.754Z,2.78
2023-01-03T04:14:03.756Z,2.79
2023-01-03T04:16:31.269Z,2.81
2023-01-03T04:18:58.407Z,2.77
2023-01-03T04:21:26.517Z,2.79
2023-01-03T04:23:53.553Z,2.84
2023-01-03T04:26:21.397Z,2.82
2023-01-03T04:28:51.091Z,2.83
2023-01-03T04:31:18.595Z,2.84
2023-01-03T04:33:45.727Z,2.85
2023-01-03T04:36:13.333Z,2.86
2023-01-03T04:38:40.371Z,2.87
2023-01-03T04:41:09.469Z,2.89
2023-01-03T04:43:55.054Z,2.90
2023-01-03T04:46:22.783Z,2.92
2023-01-03T04:48:49.874Z,2.95
2023-01-03T04:51:17.546Z,2.94
2023-01-03T04:53:44.764Z,2.96
2023-01-03T04:56:12.427Z,3.00
2023-01-03T04:58:39.886Z,3.00
2023-01-03T05:01:08.531Z,2.97
2023-01-03T05:03:38.173Z,2.99
2023-01-03T05:06:08.248Z,3.02
2023-01-03T05:08:36.310Z,2.99
2023-01-03T05:11:03.880Z,2.97
2023-01-03T05:13:33.048Z,2.94
2023-01-03T05:16:11.550Z,2.93
2023-01-03T05:18:39.911Z,2.91
2023-01-03T05:21:27.376Z,2.87
2023-01-03T05:24:13.206Z,2.86
2023-01-03T05:26:41.433Z,2.81
2023-01-03T05:29:10.355Z,2.80
2023-01-03T05:31:37.712Z,2.80
2023-01-03T05:34:05.100Z,2.78
2023-01-03T05:36:32.160Z,2.79
2023-01-03T05:38:59.921Z,2.77
2023-01-03T05:41:48.001Z,2.80
2023-01-03T05:44:17.610Z,2.82
2023-01-03T05:46:45.026Z,2.81
2023-01-03T05:49:12.487Z,2.81
2023-01-03T05:51:39.603Z,2.82
2023-01-03T05:54:07.222Z,2.85
2023-01-03T05:56:34.423Z,2.85
2023-01-03T05:59:01.895Z,2.88
2023-01-03T06:01:29.037Z,2.89
2023-01-03T06:03:56.596Z,2.86
2023-01-03T06:06:23.661Z,2.86
2023-01-03T06:08:51.186Z,2.88
2023-01-03T06:11:21.375Z,2.92
2023-01-03T06:13:48.758Z,2.95
2023-01-03T06:16:38.066Z,2.95
2023-01-03T06:19:06.804Z,2.95
2023-01-03T06:21:34.685Z,3.06
2023-01-03T06:24:02.261Z,3.16
2023-01-03T06:26:29.449Z,3.26
2023-01-03T06:28:56.889Z,3.26
2023-01-03T06:31:26.194Z,3.31
2023-01-03T06:33:53.793Z,3.33
2023-01-03T06:36:22.791Z,3.37
2023-01-03T06:38:50.103Z,3.41
2023-01-03T06:41:17.513Z,3.45
2023-01-03T06:43:45.436Z,3.47
2023-01-03T06:46:32.603Z,3.47
2023-01-03T06:49:19.206Z,3.42
2023-01-03T06:52:08.504Z,3.36
2023-01-03T06:54:38.184Z,3.33
2023-01-03T06:57:05.889Z,3.34
2023-01-03T06:59:33.263Z,3.35
2023-01-03T07:02:00.665Z,3.37
2023-01-03T07:04:28.238Z,3.42
2023-01-03T07:06:55.639Z,3.49
2023-01-03T07:09:24.321Z,3.55
2023-01-03T07:11:51.465Z,3.62
2023-01-03T07:14:21.305Z,3.59
2023-01-03T07:16:48.877Z,3.56
2023-01-03T07:19:19.814Z,3.59
2023-01-03T07:21:47.532Z,3.64
2023-01-03T07:24:18.641Z,3.76
2023-01-03T07:26:48.161Z,3.84
2023-01-03T07:29:15.748Z,3.98
2023-01-03T07:31:43.016Z,4.01
2023-01-03T07:34:10.721Z,4.15
2023-01-03T07:36:39.939Z,4.28
2023-01-03T07:39:07.454Z,4.34
2023-01-03T07:41:53.145Z,4.43
2023-01-03T07:44:20.688Z,4.51
2023-01-03T07:46:47.916Z,4.47
2023-01-03T07:49:17.610Z,4.47
2023-01-03T07:51:44.685Z,4.50
2023-01-03T07:54:12.284Z,4.52
2023-01-03T07:56:40.497Z,4.52
2023-01-03T07:59:08.848Z,4.56
2023-01-03T08:01:36.084Z,4.63
2023-01-03T08:04:03.712Z,4.74
2023-01-03T08:06:30.775Z,4.75
2023-01-03T08:09:16.652Z,4.83
2023-01-03T08:12:02.472Z,4.89
2023-01-03T08:14:29.897Z,4.95
2023-01-03T08:16:56.939Z,5.00
2023-01-03T08:19:24.925Z,5.00
2023-01-03T08:21:52.404Z,5.16
2023-01-03T08:24:19.851Z,5.26
2023-01-03T08:26:47.051Z,5.33
2023-01-03T08:29:15.350Z,5.38
2023-01-03T08:31:47.229Z,5.42
2023-01-03T08:34:20.948Z,5.42
2023-01-03T08:37:00.931Z,5.45
2023-01-03T08:39:37.647Z,5.48
2023-01-03T08:42:08.107Z,5.57
2023-01-03T08:44:38.887Z,5.57
2023-01-03T08:47:08.499Z,5.63
2023-01-03T08:49:36.896Z,5.75
2023-01-03T08:52:04.477Z,5.80
2023-01-03T08:54:32.901Z,5.90
2023-01-03T08:56:59.951Z,5.89
2023-01-03T08:59:27.368Z,5.98
2023-01-03T09:01:58.732Z,6.15
2023-01-03T09:04:26.498Z,6.31
2023-01-03T09:06:54.354Z,6.39
2023-01-03T09:09:21.834Z,6.70
2023-01-03T09:11:51.283Z,6.87
2023-01-03T09:14:18.688Z,7.16
2023-01-03T09:16:49.222Z,7.19
2023-01-03T09:19:17.349Z,7.39
2023-01-03T09:21:44.448Z,7.60
2023-01-03T09:24:11.958Z,7.61
2023-01-03T09:26:39.273Z,7.64
2023-01-03T09:29:07.108Z,7.65
2023-01-03T09:31:35.434Z,7.69
2023-01-03T09:34:05.450Z,7.66
2023-01-03T09:36:33.026Z,7.69
2023-01-03T09:39:02.847Z,7.73
2023-01-03T09:41:30.091Z,7.78
2023-01-03T09:44:04.677Z,7.90
2023-01-03T09:46:34.148Z,8.02
2023-01-03T09:49:04.159Z,8.15
2023-01-03T09:52:03.770Z,8.29
2023-01-03T09:54:58.730Z,8.40
2023-01-03T09:57:49.557Z,8.56
2023-01-03T10:00:51.420Z,8.62
2023-01-03T10:03:49.850Z,8.73
2023-01-03T10:06:41.116Z,8.90
2023-01-03T10:09:23.342Z,8.94
2023-01-03T10:12:13.914Z,9.06
2023-01-03T10:14:44.059Z,9.10
2023-01-03T10:17:21.789Z,9.13
2023-01-03T10:20:13.263Z,9.17
2023-01-03T10:22:47.897Z,9.13
2023-01-03T10:25:21.598Z,9.08
2023-01-03T10:28:01.434Z,9.06
2023-01-03T10:31:07.541Z,9.07
2023-01-03T10:33:48.988Z,9.04
2023-01-03T10:36:19.557Z,9.03
2023-01-03T10:38:52.932Z,9.04
2023-01-03T10:41:32.046Z,9.03
2023-01-03T10:44:01.954Z,9.06
2023-01-03T10:46:31.711Z,9.00
2023-01-03T10:49:29.826Z,8.98
2023-01-03T10:52:16.217Z,9.02
2023-01-03T10:54:46.754Z,9.03
2023-01-03T10:57:41.702Z,9.09
2023-01-03T11:00:27.389Z,9.13
2023-01-03T11:02:56.221Z,9.28
2023-01-03T11:05:27.166Z,9.40
2023-01-03T11:07:54.323Z,9.40
2023-01-03T11:10:23.537Z,9.47
2023-01-03T11:12:52.954Z,9.53
2023-01-03T11:15:39.381Z,9.63
2023-01-03T11:18:17.545Z,9.66
2023-01-03T11:20:59.423Z,9.75
2023-01-03T11:24:04.808Z,9.83
2023-01-03T11:26:48.333Z,9.98
2023-01-03T11:29:31.308Z,9.98
2023-01-03T11:32:23.812Z,9.96
2023-01-03T11:35:25.442Z,9.96
2023-01-03T11:38:01.953Z,9.98
2023-01-03T11:40:41.877Z,10.03
2023-01-03T11:43:12.335Z,9.99
2023-01-03T11:46:08.952Z,9.96
2023-01-03T11:48:53.147Z,9.95
2023-01-03T11:52:02.167Z,9.90
2023-01-03T11:54:32.082Z,9.95
2023-01-03T11:57:13.336Z,9.93
2023-01-03T11:59:57.445Z,9.92
2023-01-03T12:02:48.360Z,9.96
2023-01-03T12:05:40.869Z,9.93
2023-01-03T12:08:29.825Z,9.91
2023-01-03T12:11:02.527Z,9.94
2023-01-03T12:13:56.010Z,9.95
2023-01-03T12:16:37.624Z,9.97
2023-01-03T12:19:33.799Z,9.95
2023-01-03T12:22:13.415Z,9.98
2023-01-03T12:24:52.095Z,10.00
2023-01-03T12:27:30.148Z,10.07
2023-01-03T12:30:03.286Z,10.03
2023-01-03T12:33:26.250Z,9.98
2023-01-03T12:36:04.105Z,10.02
2023-01-03T12:38:40.477Z,9.96
2023-01-03T12:41:52.873Z,9.95
2023-01-03T12:44:30.661Z,9.90
2023-01-03T12:46:58.316Z,9.88
2023-01-03T12:49:35.051Z,9.86
2023-01-03T12:52:02.506Z,9.82
2023-01-03T12:54:33.052Z,9.80
2023-01-03T12:57:10.225Z,9.78
2023-01-03T12:59:50.491Z,9.78
2023-01-03T13:02:32.906Z,9.73
2023-01-03T13:05:15.312Z,9.70
2023-01-03T13:07:50.395Z,9.73
2023-01-03T13:10:21.355Z,9.72
2023-01-03T13:12:55.228Z,9.66
2023-01-03T13:15:37.316Z,9.66
2023-01-03T13:18:22.948Z,9.65
2023-01-03T13:20:55.287Z,9.68
2023-01-03T13:23:33.880Z,9.69
2023-01-03T13:26:07.137Z,9.65
2023-01-03T13:28:39.122Z,9.70
2023-01-03T13:31:19.103Z,9.62
2023-01-03T13:33:52.304Z,9.62
2023-01-03T13:36:20.000Z,9.63
2023-01-03T13:38:47.295Z,9.62
2023-01-03T13:41:29.330Z,9.63
2023-01-03T13:44:17.770Z,9.63
2023-01-03T13:46:46.478Z,9.60
2023-01-03T13:49:23.270Z,9.60
2023-01-03T13:51:54.080Z,9.55
2023-01-03T13:54:21.273Z,9.52
2023-01-03T13:56:48.927Z,9.52
2023-01-03T13:59:18.157Z,9.51
2023-01-03T14:01:58.065Z,9.51
2023-01-03T14:04:50.009Z,9.48
2023-01-03T14:07:37.640Z,9.44
2023-01-03T14:10:52.549Z,9.43
2023-01-03T14:14:02.069Z,9.40
2023-01-03T14:16:37.818Z,9.38
2023-01-03T14:19:35.750Z,9.34
2023-01-03T14:22:28.130Z,9.34
2023-01-03T14:24:58.158Z,9.27
2023-01-03T14:27:36.228Z,9.23
2023-01-03T14:30:04.367Z,9.20
2023-01-03T14:32:37.419Z,9.16
2023-01-03T14:35:25.117Z,9.15
2023-01-03T14:37:52.173Z,9.10
2023-01-03T14:40:20.598Z,9.05
2023-01-03T14:42:47.726Z,9.05
2023-01-03T14:45:19.685Z,8.96
2023-01-03T14:47:48.017Z,8.96
2023-01-03T14:50:22.514Z,8.92
2023-01-03T14:52:54.403Z,8.82
2023-01-03T14:55:31.754Z,8.77
2023-01-03T14:58:02.322Z,8.72
2023-01-03T15:00:33.564Z,8.66
2023-01-03T15:03:03.221Z,8.64
2023-01-03T15:05:33.905Z,8.61
2023-01-03T15:08:19.715Z,8.60
2023-01-03T15:10:59.878Z,8.55
2023-01-03T15:13:33.908Z,8.50
2023-01-03T15:16:05.807Z,8.49
2023-01-03T15:18:35.924Z,8.49
2023-01-03T15:21:06.195Z,8.50
2023-01-03T15:23:36.798Z,8.42
2023-01-03T15:26:09.483Z,8.40
2023-01-03T15:28:48.707Z,8.38
2023-01-03T15:31:37.753Z,8.31
2023-01-03T15:34:11.652Z,8.28
2023-01-03T15:36:39.984Z,8.27
2023-01-03T15:39:22.274Z,8.27
2023-01-03T15:42:42.843Z,8.24
2023-01-03T15:45:00.678Z,8.17
2023-01-03T15:47:31.802Z,8.21
2023-01-03T15:50:02.456Z,8.20
2023-01-03T15:52:29.990Z,8.17
2023-01-03T15:54:57.110Z,8.19
2023-01-03T15:57:29.959Z,8.18
2023-01-03T16:00:01.837Z,8.12
2023-01-03T16:02:32.610Z,8.08
2023-01-03T16:04:59.951Z,8.03
2023-01-03T16:07:27.798Z,7.99
2023-01-03T16:09:54.862Z,7.98
2023-01-03T16:12:32.137Z,7.93
2023-01-03T16:14:59.254Z,7.93
2023-01-03T16:17:28.646Z,7.89
2023-01-03T16:19:57.956Z,7.88
2023-01-03T16:22:35.493Z,7.87
2023-01-03T16:25:05.631Z,7.83
2023-01-03T16:27:33.463Z,7.83
2023-01-03T16:30:00.877Z,7.80
2023-01-03T16:32:30.174Z,7.85
2023-01-03T16:35:00.702Z,7.86
2023-01-03T16:37:28.494Z,7.80
2023-01-03T16:39:55.768Z,7.81
2023-01-03T16:42:28.694Z,7.77
2023-01-03T16:44:56.339Z,7.86
2023-01-03T16:47:28.773Z,7.81
2023-01-03T16:50:00.833Z,7.81
2023-01-03T16:52:34.156Z,7.85
2023-01-03T16:55:16.274Z,7.85
2023-01-03T16:57:46.282Z,7.82
2023-01-03T17:00:27.229Z,7.82
2023-01-03T17:02:56.332Z,7.79
2023-01-03T17:05:24.258Z,7.74
2023-01-03T17:07:55.014Z,7.77
2023-01-03T17:10:29.963Z,7.77
2023-01-03T17:12:59.124Z,7.72
2023-01-03T17:15:29.524Z,7.73
2023-01-03T17:17:57.471Z,7.70
2023-01-03T17:20:27.219Z,7.74
2023-01-03T17:22:59.356Z,7.73
2023-01-03T17:25:34.784Z,7.73
2023-01-03T17:28:10.611Z,7.74
2023-01-03T17:30:44.824Z,7.71
2023-01-03T17:33:20.557Z,7.70
2023-01-03T17:35:54.550Z,7.64
2023-01-03T17:38:26.918Z,7.63
2023-01-03T17:40:57.772Z,7.59
2023-01-03T17:43:25.787Z,7.62
2023-01-03T17:46:24.012Z,7.59
2023-01-03T17:49:10.590Z,7.57
2023-01-03T17:51:38.146Z,7.57
2023-01-03T17:54:05.925Z,7.61
2023-01-03T17:56:33.060Z,7.60
2023-01-03T17:59:00.460Z,7.57
2023-01-03T18:01:28.145Z,7.57
2023-01-03T18:03:55.923Z,7.57
2023-01-03T18:06:25.220Z,7.63
2023-01-03T18:08:53.695Z,7.64
2023-01-03T18:11:24.649Z,7.64
2023-01-03T18:13:55.614Z,7.62
2023-01-03T18:16:24.141Z,7.59
2023-01-03T18:18:51.719Z,7.60
2023-01-03T18:21:24.989Z,7.60
2023-01-03T18:24:15.566Z,7.62
2023-01-03T18:26:48.615Z,7.61
2023-01-03T18:29:19.614Z,7.61
2023-01-03T18:31:48.755Z,7.57
2023-01-03T18:34:27.860Z,7.58
2023-01-03T18:36:56.639Z,7.56
2023-01-03T18:39:35.736Z,7.55
2023-01-03T18:42:55.643Z,7.53
2023-01-03T18:45:25.538Z,7.51
2023-01-03T18:48:02.073Z,7.47
2023-01-03T18:50:34.526Z,7.42
2023-01-03T18:53:10.595Z,7.44
2023-01-03T18:55:43.277Z,7.45
2023-01-03T18:58:27.967Z,7.42
2023-01-03T19:00:55.742Z,7.41
2023-01-03T19:03:29.976Z,7.34
2023-01-03T19:06:12.784Z,7.31
2023-01-03T19:08:43.725Z,7.31
2023-01-03T19:11:24.893Z,7.27
2023-01-03T19:13:55.285Z,7.32
2023-01-03T19:16:37.287Z,7.33
2023-01-03T19:19:14.892Z,7.30
2023-01-03T19:21:47.389Z,7.29
2023-01-03T19:24:38.890Z,7.31
2023-01-03T19:27:23.629Z,7.32
2023-01-03T19:29:52.854Z,7.29
2023-01-03T19:32:24.295Z,7.35
2023-01-03T19:34:52.197Z,7.34
2023-01-03T19:37:19.966Z,7.35
2023-01-03T19:39:47.263Z,7.34
2023-01-03T19:42:36.576Z,7.32
2023-01-03T19:45:27.379Z,7.32
2023-01-03T19:47:57.297Z,7.39
2023-01-03T19:50:26.484Z,7.42
2023-01-03T19:52:58.265Z,7.48
2023-01-03T19:55:28.908Z,7.57
2023-01-03T19:58:02.583Z,7.64
2023-01-03T20:00:34.826Z,7.66
2023-01-03T20:03:06.490Z,7.67
2023-01-03T20:05:35.704Z,7.67
2023-01-03T20:08:11.584Z,7.65
2023-01-03T20:10:45.327Z,7.62
2023-01-03T20:13:20.855Z,7.66
2023-01-03T20:15:51.238Z,7.69
2023-01-03T20:18:30.789Z,7.66
2023-01-03T20:21:23.433Z,7.54
2023-01-03T20:24:00.634Z,7.49
2023-01-03T20:26:34.168Z,7.41
2023-01-03T20:29:07.022Z,7.40
2023-01-03T20:31:34.765Z,7.35
2023-01-03T20:34:07.891Z,7.27
2023-01-03T20:36:42.584Z,7.26
2023-01-03T20:39:33.224Z,7.30
2023-01-03T20:42:05.414Z,7.31
2023-01-03T20:44:35.831Z,7.30
2023-01-03T20:47:05.743Z,7.36
2023-01-03T20:49:37.365Z,7.37
2023-01-03T20:52:05.096Z,7.40
2023-01-03T20:54:32.876Z,7.46
2023-01-03T20:57:00.628Z,7.44
2023-01-03T20:59:29.297Z,7.44
2023-01-03T21:01:56.869Z,7.46
2023-01-03T21:04:25.059Z,7.45
2023-01-03T21:06:52.863Z,7.40
2023-01-03T21:09:20.457Z,7.37
2023-01-03T21:11:48.434Z,7.32
2023-01-03T21:14:18.882Z,7.26
2023-01-03T21:16:46.928Z,7.18
2023-01-03T21:19:23.220Z,7.09
2023-01-03T21:21:51.896Z,6.97
2023-01-03T21:24:23.350Z,6.89
2023-01-03T21:26:50.864Z,6.76
2023-01-03T21:29:19.000Z,6.74
2023-01-03T21:31:46.986Z,6.67
2023-01-03T21:34:20.922Z,6.55
2023-01-03T21:36:53.017Z,6.44
2023-01-03T21:39:21.653Z,6.31
2023-01-03T21:42:07.624Z,6.21
2023-01-03T21:44:35.433Z,6.14
2023-01-03T21:47:02.961Z,6.06
2023-01-03T21:49:30.489Z,5.90
2023-01-03T21:52:00.059Z,5.89
2023-01-03T21:54:28.585Z,5.82
2023-01-03T21:56:56.039Z,5.78
2023-01-03T21:59:23.878Z,5.65
2023-01-03T22:02:09.883Z,5.59
2023-01-03T22:04:38.579Z,5.51
2023-01-03T22:07:05.847Z,5.51
2023-01-03T22:09:51.886Z,5.49
2023-01-03T22:12:19.889Z,5.47
2023-01-03T22:14:47.785Z,5.41
2023-01-03T22:17:15.676Z,5.36
2023-01-03T22:19:43.332Z,5.30
2023-01-03T22:22:10.998Z,5.20
2023-01-03T22:24:38.497Z,5.14
2023-01-03T22:27:06.471Z,5.09
2023-01-03T22:29:33.929Z,5.06
2023-01-03T22:32:01.278Z,5.04
2023-01-03T22:34:28.858Z,4.95
2023-01-03T22:36:56.317Z,4.90
2023-01-03T22:39:26.225Z,4.83
2023-01-03T22:41:53.444Z,4.77
2023-01-03T22:44:21.274Z,4.73
2023-01-03T22:46:48.635Z,4.70
2023-01-03T22:49:16.063Z,4.68
2023-01-03T22:51:43.180Z,4.66
2023-01-03T22:54:10.547Z,4.58
2023-01-03T22:56:39.947Z,4.55
2023-01-03T22:59:09.949Z,4.53
2023-01-03T23:01:38.001Z,4.46
2023-01-03T23:04:08.467Z,4.44
2023-01-03T23:06:36.565Z,4.43
2023-01-03T23:09:04.591Z,4.36
2023-01-03T23:11:51.752Z,4.35
2023-01-03T23:14:21.673Z,4.30
2023-01-03T23:16:51.256Z,4.31
2023-01-03T23:19:21.460Z,4.26
2023-01-03T23:21:48.714Z,4.24
2023-01-03T23:24:18.548Z,4.21
2023-01-03T23:26:45.645Z,4.23
2023-01-03T23:29:14.997Z,4.33
2023-01-03T23:31:42.865Z,4.43
2023-01-03T23:34:15.852Z,4.37
2023-01-03T23:36:43.525Z,4.35
2023-01-03T23:39:16.469Z,4.40
2023-01-03T23:41:44.087Z,4.44
2023-01-03T23:44:11.814Z,4.50
2023-01-03T23:46:39.063Z,4.50
2023-01-03T23:49:06.395Z,4.44
2023-01-03T23:51:33.576Z,4.35
2023-01-03T23:54:03.243Z,4.29
2023-01-03T23:56:30.713Z,4.25
2023-01-03T23:58:59.331Z,4.16
